Pagina principale
METAR-TAF:

METAR-TAF

Aeroporti :

Mafikeng, Sudafrica

latitudine: 25-47S, longitudine: 025-32E, altezza: 1281 m

Osservazione

Il bollettino è stato emesso 1 ora e 8 minuti fa, alle 17:00 UTC
Vento 4 kt da sud
Temperature 15°C
Umidità 27%
Pressione 1025 hPa
Visibilità 10 km o più
nessuna nube inferiore a 1500 m e nessun cumulonembo

METAR: FAMM 241700Z 19004KT CAVOK 15/M04 Q1025 NOSIG

Ora: 20:08 (18:08 UTC)

Previsione

Il bollettino è stato emesso 9 ore e 8 minuti fa, alle 09:00 UTC
Previsione valida dal 24 alle 10 UTC al 24 alle 18 UTC
Vento 6 kt da nord/nord-ovest
Visibilità 10 km o più
nessuna nube inferiore a 1500 m e nessun cumulonembo
A partire da 24 alle 1300 UTC
Vento 6 kt da sud
Visibilità 10 km o più
nessuna nube inferiore a 1500 m e nessun cumulonembo

TAF: FAMM 240900Z 2410/2418 34006KT CAVOK FM241300 19006KT CAVOK TX25/2413Z TN10/2418Z

Osservazioni e previsioni meteorologiche di più di 4000 aeroporti (messaggi METAR e TAF).

Le stazioni disponibili sono rappresentate dai dischi gialli e rossi sulla carta.

Puntare il mouse per vedere il nome della stazione.

Clicca sopra per visualizzare le osservazioni e previsioni meteorologiche.

Per cambiare la mappa : fare clic sui pulsanti verdi con una croce nera per ingrandire, il pulsante verde con un trattino per diminuire, o sulla freccia verde per le mappe adiacenti.


METAR-TAF: